sensor_id;sensor_type;location;lat;lon;timestamp;temperature;humidity
33815;DHT22;20121;51.910;8.406;2024-03-02T00:02:12;6.10;99.90
33815;DHT22;20121;51.910;8.406;2024-03-02T00:04:38;6.10;99.90
33815;DHT22;20121;51.910;8.406;2024-03-02T00:14:22;6.60;99.90
33815;DHT22;20121;51.910;8.406;2024-03-02T00:16:50;6.00;99.90
33815;DHT22;20121;51.910;8.406;2024-03-02T00:19:17;6.50;99.90
33815;DHT22;20121;51.910;8.406;2024-03-02T00:21:43;6.10;99.90
33815;DHT22;20121;51.910;8.406;2024-03-02T00:24:21;6.50;99.90
33815;DHT22;20121;51.910;8.406;2024-03-02T00:26:47;6.30;99.90
33815;DHT22;20121;51.910;8.406;2024-03-02T00:29:16;6.40;99.90
33815;DHT22;20121;51.910;8.406;2024-03-02T00:31:43;6.10;99.90
33815;DHT22;20121;51.910;8.406;2024-03-02T00:34:09;6.60;99.90
33815;DHT22;20121;51.910;8.406;2024-03-02T00:36:38;6.50;99.90
33815;DHT22;20121;51.910;8.406;2024-03-02T00:39:04;6.50;99.90
33815;DHT22;20121;51.910;8.406;2024-03-02T00:41:33;6.10;99.90
33815;DHT22;20121;51.910;8.406;2024-03-02T00:44:06;6.60;99.90
33815;DHT22;20121;51.910;8.406;2024-03-02T00:46:37;6.40;99.90
33815;DHT22;20121;51.910;8.406;2024-03-02T00:49:05;6.60;99.90
33815;DHT22;20121;51.910;8.406;2024-03-02T00:54:05;6.60;99.90
33815;DHT22;20121;51.910;8.406;2024-03-02T00:56:32;6.00;99.90
33815;DHT22;20121;51.910;8.406;2024-03-02T00:58:58;6.40;99.90
33815;DHT22;20121;51.910;8.406;2024-03-02T01:01:24;6.00;99.90
33815;DHT22;20121;51.910;8.406;2024-03-02T01:03:50;6.20;99.90
33815;DHT22;20121;51.910;8.406;2024-03-02T01:06:16;6.30;99.90
33815;DHT22;20121;51.910;8.406;2024-03-02T01:08:42;6.30;99.90
33815;DHT22;20121;51.910;8.406;2024-03-02T01:11:08;6.20;99.90
33815;DHT22;20121;51.910;8.406;2024-03-02T01:16:00;6.00;99.90
33815;DHT22;20121;51.910;8.406;2024-03-02T01:20:52;6.40;99.90
33815;DHT22;20121;51.910;8.406;2024-03-02T01:23:21;6.30;99.90
33815;DHT22;20121;51.910;8.406;2024-03-02T01:25:47;5.70;99.90
33815;DHT22;20121;51.910;8.406;2024-03-02T01:28:14;6.10;99.90
33815;DHT22;20121;51.910;8.406;2024-03-02T01:30:39;6.20;99.90
33815;DHT22;20121;51.910;8.406;2024-03-02T01:33:05;6.10;99.90
33815;DHT22;20121;51.910;8.406;2024-03-02T01:35:34;6.20;99.90
33815;DHT22;20121;51.910;8.406;2024-03-02T01:38:00;6.50;99.90
33815;DHT22;20121;51.910;8.406;2024-03-02T01:40:26;6.00;99.90
33815;DHT22;20121;51.910;8.406;2024-03-02T01:42:53;6.30;99.90
33815;DHT22;20121;51.910;8.406;2024-03-02T01:45:23;6.20;99.90
33815;DHT22;20121;51.910;8.406;2024-03-02T01:47:49;6.50;99.90
33815;DHT22;20121;51.910;8.406;2024-03-02T01:50:15;6.50;99.90
33815;DHT22;20121;51.910;8.406;2024-03-02T01:52:41;6.30;99.90
33815;DHT22;20121;51.910;8.406;2024-03-02T01:55:07;6.30;99.90
33815;DHT22;20121;51.910;8.406;2024-03-02T01:57:34;6.20;99.90
33815;DHT22;20121;51.910;8.406;2024-03-02T02:00:00;6.20;99.90
33815;DHT22;20121;51.910;8.406;2024-03-02T02:02:26;6.40;99.90
33815;DHT22;20121;51.910;8.406;2024-03-02T02:04:51;6.70;99.90
33815;DHT22;20121;51.910;8.406;2024-03-02T02:07:17;6.10;99.90
33815;DHT22;20121;51.910;8.406;2024-03-02T02:09:43;6.60;99.90
33815;DHT22;20121;51.910;8.406;2024-03-02T02:12:09;6.40;99.90
33815;DHT22;20121;51.910;8.406;2024-03-02T02:14:36;6.60;99.90
33815;DHT22;20121;51.910;8.406;2024-03-02T02:17:01;5.90;99.90
33815;DHT22;20121;51.910;8.406;2024-03-02T02:19:27;6.10;99.90
33815;DHT22;20121;51.910;8.406;2024-03-02T02:24:18;6.10;99.90
33815;DHT22;20121;51.910;8.406;2024-03-02T02:26:44;5.90;99.90
33815;DHT22;20121;51.910;8.406;2024-03-02T02:29:10;6.40;99.90
33815;DHT22;20121;51.910;8.406;2024-03-02T02:31:39;6.40;99.90
33815;DHT22;20121;51.910;8.406;2024-03-02T02:34:05;6.40;99.90
33815;DHT22;20121;51.910;8.406;2024-03-02T02:36:36;6.00;99.90
33815;DHT22;20121;51.910;8.406;2024-03-02T02:39:03;6.20;99.90
33815;DHT22;20121;51.910;8.406;2024-03-02T02:41:30;6.40;99.90
33815;DHT22;20121;51.910;8.406;2024-03-02T02:43:56;5.90;99.90
33815;DHT22;20121;51.910;8.406;2024-03-02T02:46:21;5.90;99.90
33815;DHT22;20121;51.910;8.406;2024-03-02T02:48:47;6.00;99.90
33815;DHT22;20121;51.910;8.406;2024-03-02T02:51:13;6.10;99.90
33815;DHT22;20121;51.910;8.406;2024-03-02T02:53:38;6.00;99.90
33815;DHT22;20121;51.910;8.406;2024-03-02T02:56:06;6.20;99.90
33815;DHT22;20121;51.910;8.406;2024-03-02T02:58:32;6.00;99.90
33815;DHT22;20121;51.910;8.406;2024-03-02T03:00:57;5.80;99.90
33815;DHT22;20121;51.910;8.406;2024-03-02T03:03:23;6.00;99.90
33815;DHT22;20121;51.910;8.406;2024-03-02T03:05:49;6.40;99.90
33815;DHT22;20121;51.910;8.406;2024-03-02T03:08:14;6.50;99.90
33815;DHT22;20121;51.910;8.406;2024-03-02T03:10:41;6.40;99.90
33815;DHT22;20121;51.910;8.406;2024-03-02T03:13:07;6.40;99.90
33815;DHT22;20121;51.910;8.406;2024-03-02T03:15:36;6.50;99.90
33815;DHT22;20121;51.910;8.406;2024-03-02T03:18:02;6.50;99.90
33815;DHT22;20121;51.910;8.406;2024-03-02T03:20:30;6.10;99.90
33815;DHT22;20121;51.910;8.406;2024-03-02T03:22:59;6.40;99.90
33815;DHT22;20121;51.910;8.406;2024-03-02T03:25:25;6.40;99.90
33815;DHT22;20121;51.910;8.406;2024-03-02T03:27:51;6.30;99.90
33815;DHT22;20121;51.910;8.406;2024-03-02T03:30:19;6.30;99.90
33815;DHT22;20121;51.910;8.406;2024-03-02T03:32:45;6.40;99.90
33815;DHT22;20121;51.910;8.406;2024-03-02T03:37:38;6.30;99.90
33815;DHT22;20121;51.910;8.406;2024-03-02T03:40:04;6.50;99.90
33815;DHT22;20121;51.910;8.406;2024-03-02T03:42:38;5.90;99.90
33815;DHT22;20121;51.910;8.406;2024-03-02T03:45:05;5.70;99.90
33815;DHT22;20121;51.910;8.406;2024-03-02T03:47:31;6.20;99.90
33815;DHT22;20121;51.910;8.406;2024-03-02T03:54:49;6.40;99.90
33815;DHT22;20121;51.910;8.406;2024-03-02T03:57:15;6.10;99.90
33815;DHT22;20121;51.910;8.406;2024-03-02T04:02:08;6.10;99.90
33815;DHT22;20121;51.910;8.406;2024-03-02T04:04:34;6.40;99.90
33815;DHT22;20121;51.910;8.406;2024-03-02T04:09:26;5.90;99.90
33815;DHT22;20121;51.910;8.406;2024-03-02T04:14:18;6.40;99.90
33815;DHT22;20121;51.910;8.406;2024-03-02T04:16:43;6.10;99.90
33815;DHT22;20121;51.910;8.406;2024-03-02T04:19:09;6.00;99.90
33815;DHT22;20121;51.910;8.406;2024-03-02T04:21:34;5.80;99.90
33815;DHT22;20121;51.910;8.406;2024-03-02T04:26:26;6.20;99.90
33815;DHT22;20121;51.910;8.406;2024-03-02T04:28:52;5.90;99.90
33815;DHT22;20121;51.910;8.406;2024-03-02T04:31:19;5.80;99.90
33815;DHT22;20121;51.910;8.406;2024-03-02T04:33:45;6.30;99.90
33815;DHT22;20121;51.910;8.406;2024-03-02T04:36:11;6.30;99.90
33815;DHT22;20121;51.910;8.406;2024-03-02T04:38:39;6.00;99.90
33815;DHT22;20121;51.910;8.406;2024-03-02T04:41:06;6.10;99.90
33815;DHT22;20121;51.910;8.406;2024-03-02T04:43:32;6.30;99.90
33815;DHT22;20121;51.910;8.406;2024-03-02T04:46:01;5.80;99.90
33815;DHT22;20121;51.910;8.406;2024-03-02T04:48:27;6.10;99.90
33815;DHT22;20121;51.910;8.406;2024-03-02T04:58:30;6.10;99.90
33815;DHT22;20121;51.910;8.406;2024-03-02T05:00:55;6.20;99.90
33815;DHT22;20121;51.910;8.406;2024-03-02T05:03:22;5.90;99.90
33815;DHT22;20121;51.910;8.406;2024-03-02T05:05:47;6.40;99.90
33815;DHT22;20121;51.910;8.406;2024-03-02T05:10:39;6.00;99.90
33815;DHT22;20121;51.910;8.406;2024-03-02T05:13:05;6.00;99.90
33815;DHT22;20121;51.910;8.406;2024-03-02T05:15:30;5.80;99.90
33815;DHT22;20121;51.910;8.406;2024-03-02T05:17:57;6.50;99.90
33815;DHT22;20121;51.910;8.406;2024-03-02T05:22:49;5.90;99.90
33815;DHT22;20121;51.910;8.406;2024-03-02T05:25:15;6.40;99.90
33815;DHT22;20121;51.910;8.406;2024-03-02T05:27:40;6.40;99.90
33815;DHT22;20121;51.910;8.406;2024-03-02T05:30:07;6.30;99.90
33815;DHT22;20121;51.910;8.406;2024-03-02T05:32:33;6.00;99.90
33815;DHT22;20121;51.910;8.406;2024-03-02T05:34:59;6.30;99.90
33815;DHT22;20121;51.910;8.406;2024-03-02T05:37:24;6.30;99.90
33815;DHT22;20121;51.910;8.406;2024-03-02T05:39:50;6.30;99.90
33815;DHT22;20121;51.910;8.406;2024-03-02T05:44:44;6.30;99.90
33815;DHT22;20121;51.910;8.406;2024-03-02T05:47:10;6.30;99.90
33815;DHT22;20121;51.910;8.406;2024-03-02T05:52:02;6.40;99.90
33815;DHT22;20121;51.910;8.406;2024-03-02T05:54:28;6.30;99.90
33815;DHT22;20121;51.910;8.406;2024-03-02T05:59:20;6.20;99.90
33815;DHT22;20121;51.910;8.406;2024-03-02T06:01:46;6.20;99.90
33815;DHT22;20121;51.910;8.406;2024-03-02T06:04:12;6.20;99.90
33815;DHT22;20121;51.910;8.406;2024-03-02T06:06:41;6.20;99.90
33815;DHT22;20121;51.910;8.406;2024-03-02T06:09:07;6.30;99.90
33815;DHT22;20121;51.910;8.406;2024-03-02T06:11:37;6.40;99.90
33815;DHT22;20121;51.910;8.406;2024-03-02T06:14:03;6.20;99.90
33815;DHT22;20121;51.910;8.406;2024-03-02T06:16:29;6.20;99.90
33815;DHT22;20121;51.910;8.406;2024-03-02T06:18:55;6.00;99.90
33815;DHT22;20121;51.910;8.406;2024-03-02T06:21:23;5.90;99.90
33815;DHT22;20121;51.910;8.406;2024-03-02T06:23:49;6.50;99.90
33815;DHT22;20121;51.910;8.406;2024-03-02T06:28:40;6.40;99.90
33815;DHT22;20121;51.910;8.406;2024-03-02T06:31:06;6.20;99.90
33815;DHT22;20121;51.910;8.406;2024-03-02T06:33:32;6.20;99.90
33815;DHT22;20121;51.910;8.406;2024-03-02T06:35:57;6.50;99.90
33815;DHT22;20121;51.910;8.406;2024-03-02T06:38:23;6.10;99.90
33815;DHT22;20121;51.910;8.406;2024-03-02T06:43:15;6.20;99.90
33815;DHT22;20121;51.910;8.406;2024-03-02T06:45:40;5.90;99.90
33815;DHT22;20121;51.910;8.406;2024-03-02T06:48:06;6.20;99.90
33815;DHT22;20121;51.910;8.406;2024-03-02T06:50:32;6.30;99.90
33815;DHT22;20121;51.910;8.406;2024-03-02T06:52:58;5.90;99.90
33815;DHT22;20121;51.910;8.406;2024-03-02T06:55:24;6.10;99.90
33815;DHT22;20121;51.910;8.406;2024-03-02T06:57:52;6.30;99.90
33815;DHT22;20121;51.910;8.406;2024-03-02T07:00:19;6.30;99.90
33815;DHT22;20121;51.910;8.406;2024-03-02T07:02:45;6.40;99.90
33815;DHT22;20121;51.910;8.406;2024-03-02T07:05:11;6.20;99.90
33815;DHT22;20121;51.910;8.406;2024-03-02T07:07:37;6.50;99.90
33815;DHT22;20121;51.910;8.406;2024-03-02T07:10:04;6.20;99.90
33815;DHT22;20121;51.910;8.406;2024-03-02T07:12:30;6.30;99.90
33815;DHT22;20121;51.910;8.406;2024-03-02T07:14:56;6.20;99.90
33815;DHT22;20121;51.910;8.406;2024-03-02T07:17:37;6.00;99.90
33815;DHT22;20121;51.910;8.406;2024-03-02T07:20:03;6.00;99.90
33815;DHT22;20121;51.910;8.406;2024-03-02T07:24:58;6.50;99.90
33815;DHT22;20121;51.910;8.406;2024-03-02T07:27:25;6.10;99.90
33815;DHT22;20121;51.910;8.406;2024-03-02T07:32:16;6.30;99.90
33815;DHT22;20121;51.910;8.406;2024-03-02T07:34:42;6.60;99.90
33815;DHT22;20121;51.910;8.406;2024-03-02T07:37:07;6.60;99.90
33815;DHT22;20121;51.910;8.406;2024-03-02T07:39:33;6.10;99.90
33815;DHT22;20121;51.910;8.406;2024-03-02T07:41:59;6.30;99.90
33815;DHT22;20121;51.910;8.406;2024-03-02T07:44:25;6.50;99.90
33815;DHT22;20121;51.910;8.406;2024-03-02T07:46:51;7.00;99.90
33815;DHT22;20121;51.910;8.406;2024-03-02T07:49:17;7.20;99.90
33815;DHT22;20121;51.910;8.406;2024-03-02T07:51:43;7.30;99.90
33815;DHT22;20121;51.910;8.406;2024-03-02T07:56:35;7.10;99.90
33815;DHT22;20121;51.910;8.406;2024-03-02T07:59:04;7.40;99.90
33815;DHT22;20121;51.910;8.406;2024-03-02T08:01:31;7.10;99.90
33815;DHT22;20121;51.910;8.406;2024-03-02T08:04:03;7.50;99.90
33815;DHT22;20121;51.910;8.406;2024-03-02T08:06:29;8.00;99.90
33815;DHT22;20121;51.910;8.406;2024-03-02T08:08:56;8.10;99.90
33815;DHT22;20121;51.910;8.406;2024-03-02T08:11:22;7.90;99.90
33815;DHT22;20121;51.910;8.406;2024-03-02T08:13:48;7.90;99.90
33815;DHT22;20121;51.910;8.406;2024-03-02T08:16:18;8.30;99.90
33815;DHT22;20121;51.910;8.406;2024-03-02T08:18:47;8.00;99.90
33815;DHT22;20121;51.910;8.406;2024-03-02T08:21:13;7.70;99.90
33815;DHT22;20121;51.910;8.406;2024-03-02T08:23:40;8.60;99.90
33815;DHT22;20121;51.910;8.406;2024-03-02T08:28:34;7.30;99.90
33815;DHT22;20121;51.910;8.406;2024-03-02T08:30:59;9.00;99.90
33815;DHT22;20121;51.910;8.406;2024-03-02T08:33:25;7.70;99.90
33815;DHT22;20121;51.910;8.406;2024-03-02T08:35:51;8.60;99.90
33815;DHT22;20121;51.910;8.406;2024-03-02T08:38:16;9.30;99.90
33815;DHT22;20121;51.910;8.406;2024-03-02T08:40:42;8.80;99.90
33815;DHT22;20121;51.910;8.406;2024-03-02T08:43:08;9.10;99.90
33815;DHT22;20121;51.910;8.406;2024-03-02T08:48:00;8.10;99.90
33815;DHT22;20121;51.910;8.406;2024-03-02T08:52:51;9.30;99.90
33815;DHT22;20121;51.910;8.406;2024-03-02T08:55:17;9.70;99.90
33815;DHT22;20121;51.910;8.406;2024-03-02T08:57:43;9.70;99.90
33815;DHT22;20121;51.910;8.406;2024-03-02T09:00:09;9.80;99.90
33815;DHT22;20121;51.910;8.406;2024-03-02T09:02:35;10.40;99.90
33815;DHT22;20121;51.910;8.406;2024-03-02T09:05:01;10.00;99.90
33815;DHT22;20121;51.910;8.406;2024-03-02T09:07:26;10.30;99.90
33815;DHT22;20121;51.910;8.406;2024-03-02T09:09:52;10.50;99.90
33815;DHT22;20121;51.910;8.406;2024-03-02T09:12:18;10.80;99.90
33815;DHT22;20121;51.910;8.406;2024-03-02T09:14:44;10.80;99.90
33815;DHT22;20121;51.910;8.406;2024-03-02T09:17:11;10.40;99.90
33815;DHT22;20121;51.910;8.406;2024-03-02T09:19:37;10.50;99.90
33815;DHT22;20121;51.910;8.406;2024-03-02T09:22:04;11.20;99.90
33815;DHT22;20121;51.910;8.406;2024-03-02T09:26:57;11.00;99.90
33815;DHT22;20121;51.910;8.406;2024-03-02T09:29:22;11.20;99.90
33815;DHT22;20121;51.910;8.406;2024-03-02T09:31:48;11.40;99.90
33815;DHT22;20121;51.910;8.406;2024-03-02T09:34:15;11.30;99.90
33815;DHT22;20121;51.910;8.406;2024-03-02T09:36:41;11.80;99.90
33815;DHT22;20121;51.910;8.406;2024-03-02T09:39:09;11.40;99.90
33815;DHT22;20121;51.910;8.406;2024-03-02T09:41:38;11.50;99.90
33815;DHT22;20121;51.910;8.406;2024-03-02T09:44:05;12.10;99.90
33815;DHT22;20121;51.910;8.406;2024-03-02T09:46:31;12.10;99.90
33815;DHT22;20121;51.910;8.406;2024-03-02T09:48:56;12.00;99.90
33815;DHT22;20121;51.910;8.406;2024-03-02T09:51:23;12.30;99.90
33815;DHT22;20121;51.910;8.406;2024-03-02T09:53:49;12.20;99.90
33815;DHT22;20121;51.910;8.406;2024-03-02T09:56:15;11.70;99.90
33815;DHT22;20121;51.910;8.406;2024-03-02T10:01:10;12.10;99.90
33815;DHT22;20121;51.910;8.406;2024-03-02T10:03:37;12.40;99.90
33815;DHT22;20121;51.910;8.406;2024-03-02T10:06:21;11.70;99.90
33815;DHT22;20121;51.910;8.406;2024-03-02T10:08:47;12.50;99.90
33815;DHT22;20121;51.910;8.406;2024-03-02T10:11:32;12.50;99.90
33815;DHT22;20121;51.910;8.406;2024-03-02T10:16:36;12.60;99.90
33815;DHT22;20121;51.910;8.406;2024-03-02T10:19:19;12.30;99.90
33815;DHT22;20121;51.910;8.406;2024-03-02T10:21:48;12.40;99.90
33815;DHT22;20121;51.910;8.406;2024-03-02T10:24:18;12.50;99.90
33815;DHT22;20121;51.910;8.406;2024-03-02T10:26:44;12.50;99.90
33815;DHT22;20121;51.910;8.406;2024-03-02T10:29:11;13.20;99.90
33815;DHT22;20121;51.910;8.406;2024-03-02T10:31:41;12.90;99.90
33815;DHT22;20121;51.910;8.406;2024-03-02T10:34:08;12.50;99.90
33815;DHT22;20121;51.910;8.406;2024-03-02T10:36:35;12.90;99.90
33815;DHT22;20121;51.910;8.406;2024-03-02T10:39:05;13.50;99.90
33815;DHT22;20121;51.910;8.406;2024-03-02T10:41:36;12.90;99.90
33815;DHT22;20121;51.910;8.406;2024-03-02T10:44:03;13.20;99.90
33815;DHT22;20121;51.910;8.406;2024-03-02T10:46:30;12.80;99.90
33815;DHT22;20121;51.910;8.406;2024-03-02T10:49:03;13.30;99.90
33815;DHT22;20121;51.910;8.406;2024-03-02T10:51:31;12.80;99.90
33815;DHT22;20121;51.910;8.406;2024-03-02T10:53:58;13.70;99.90
33815;DHT22;20121;51.910;8.406;2024-03-02T10:56:31;13.70;99.90
33815;DHT22;20121;51.910;8.406;2024-03-02T10:59:27;13.90;99.90
33815;DHT22;20121;51.910;8.406;2024-03-02T11:02:00;13.50;99.90
33815;DHT22;20121;51.910;8.406;2024-03-02T11:04:27;13.70;99.90
33815;DHT22;20121;51.910;8.406;2024-03-02T11:07:00;14.00;99.90
33815;DHT22;20121;51.910;8.406;2024-03-02T11:09:29;13.60;99.90
33815;DHT22;20121;51.910;8.406;2024-03-02T11:12:12;14.10;99.90
33815;DHT22;20121;51.910;8.406;2024-03-02T11:14:41;13.70;99.90
33815;DHT22;20121;51.910;8.406;2024-03-02T11:17:11;13.40;99.90
33815;DHT22;20121;51.910;8.406;2024-03-02T11:19:39;13.60;99.90
33815;DHT22;20121;51.910;8.406;2024-03-02T11:22:05;13.70;99.90
33815;DHT22;20121;51.910;8.406;2024-03-02T11:24:32;13.80;99.90
33815;DHT22;20121;51.910;8.406;2024-03-02T11:27:02;13.80;99.90
33815;DHT22;20121;51.910;8.406;2024-03-02T11:32:21;13.80;99.90
33815;DHT22;20121;51.910;8.406;2024-03-02T11:34:49;13.90;99.90
33815;DHT22;20121;51.910;8.406;2024-03-02T11:37:16;14.30;99.90
33815;DHT22;20121;51.910;8.406;2024-03-02T11:39:47;14.00;99.90
33815;DHT22;20121;51.910;8.406;2024-03-02T11:42:15;14.40;99.90
33815;DHT22;20121;51.910;8.406;2024-03-02T11:44:48;14.00;99.90
33815;DHT22;20121;51.910;8.406;2024-03-02T11:47:15;14.00;99.90
33815;DHT22;20121;51.910;8.406;2024-03-02T11:49:49;14.10;99.90
33815;DHT22;20121;51.910;8.406;2024-03-02T11:52:15;14.20;99.90
33815;DHT22;20121;51.910;8.406;2024-03-02T11:54:44;14.50;99.90
33815;DHT22;20121;51.910;8.406;2024-03-02T11:57:18;14.20;99.90
33815;DHT22;20121;51.910;8.406;2024-03-02T11:59:45;14.20;99.90
33815;DHT22;20121;51.910;8.406;2024-03-02T12:02:20;14.50;99.90
33815;DHT22;20121;51.910;8.406;2024-03-02T12:04:48;14.20;99.90
33815;DHT22;20121;51.910;8.406;2024-03-02T12:07:23;14.20;99.90
33815;DHT22;20121;51.910;8.406;2024-03-02T12:09:59;14.30;99.90
33815;DHT22;20121;51.910;8.406;2024-03-02T12:12:24;14.00;99.90
33815;DHT22;20121;51.910;8.406;2024-03-02T12:14:52;14.30;99.90
33815;DHT22;20121;51.910;8.406;2024-03-02T12:19:46;14.70;99.90
33815;DHT22;20121;51.910;8.406;2024-03-02T12:22:12;15.00;99.90
33815;DHT22;20121;51.910;8.406;2024-03-02T12:24:38;14.60;99.10
33815;DHT22;20121;51.910;8.406;2024-03-02T12:27:05;14.70;99.30
33815;DHT22;20121;51.910;8.406;2024-03-02T12:29:32;14.90;99.90
33815;DHT22;20121;51.910;8.406;2024-03-02T12:31:59;14.80;99.10
33815;DHT22;20121;51.910;8.406;2024-03-02T12:34:26;15.20;99.90
33815;DHT22;20121;51.910;8.406;2024-03-02T12:36:52;14.60;99.90
33815;DHT22;20121;51.910;8.406;2024-03-02T12:39:20;15.20;99.90
33815;DHT22;20121;51.910;8.406;2024-03-02T12:41:47;14.80;99.80
33815;DHT22;20121;51.910;8.406;2024-03-02T12:44:16;14.70;99.90
33815;DHT22;20121;51.910;8.406;2024-03-02T12:46:41;14.80;99.90
33815;DHT22;20121;51.910;8.406;2024-03-02T12:49:11;14.80;99.90
33815;DHT22;20121;51.910;8.406;2024-03-02T12:51:40;14.80;99.90
33815;DHT22;20121;51.910;8.406;2024-03-02T12:54:07;14.70;99.90
33815;DHT22;20121;51.910;8.406;2024-03-02T12:56:34;14.70;99.90
33815;DHT22;20121;51.910;8.406;2024-03-02T12:59:00;14.60;99.90
33815;DHT22;20121;51.910;8.406;2024-03-02T13:01:26;14.60;99.90
33815;DHT22;20121;51.910;8.406;2024-03-02T13:03:55;14.60;99.90
33815;DHT22;20121;51.910;8.406;2024-03-02T13:06:24;14.10;99.90
33815;DHT22;20121;51.910;8.406;2024-03-02T13:08:53;14.50;99.90
33815;DHT22;20121;51.910;8.406;2024-03-02T13:11:18;14.60;99.90
33815;DHT22;20121;51.910;8.406;2024-03-02T13:13:45;14.60;99.90
33815;DHT22;20121;51.910;8.406;2024-03-02T13:16:11;14.70;99.90
33815;DHT22;20121;51.910;8.406;2024-03-02T13:18:40;14.50;99.90
33815;DHT22;20121;51.910;8.406;2024-03-02T13:21:07;14.40;99.90
33815;DHT22;20121;51.910;8.406;2024-03-02T13:23:32;14.20;99.90
33815;DHT22;20121;51.910;8.406;2024-03-02T13:25:58;14.10;99.90
33815;DHT22;20121;51.910;8.406;2024-03-02T13:28:25;13.70;99.90
33815;DHT22;20121;51.910;8.406;2024-03-02T13:30:50;14.00;99.90
33815;DHT22;20121;51.910;8.406;2024-03-02T13:33:16;14.00;99.90
33815;DHT22;20121;51.910;8.406;2024-03-02T13:35:50;13.80;99.90
33815;DHT22;20121;51.910;8.406;2024-03-02T13:38:17;13.80;99.90
33815;DHT22;20121;51.910;8.406;2024-03-02T13:40:43;13.80;99.90
33815;DHT22;20121;51.910;8.406;2024-03-02T13:43:09;13.80;99.90
33815;DHT22;20121;51.910;8.406;2024-03-02T13:45:34;14.00;99.90
33815;DHT22;20121;51.910;8.406;2024-03-02T13:48:02;13.70;99.90
33815;DHT22;20121;51.910;8.406;2024-03-02T13:50:28;13.70;99.90
33815;DHT22;20121;51.910;8.406;2024-03-02T13:52:55;13.60;99.90
33815;DHT22;20121;51.910;8.406;2024-03-02T13:55:21;13.40;99.90
33815;DHT22;20121;51.910;8.406;2024-03-02T13:57:47;13.60;99.90
33815;DHT22;20121;51.910;8.406;2024-03-02T14:00:14;13.30;99.90
33815;DHT22;20121;51.910;8.406;2024-03-02T14:02:41;13.20;99.90
33815;DHT22;20121;51.910;8.406;2024-03-02T14:05:07;13.60;99.90
33815;DHT22;20121;51.910;8.406;2024-03-02T14:07:37;13.70;99.90
33815;DHT22;20121;51.910;8.406;2024-03-02T14:10:03;13.70;99.90
33815;DHT22;20121;51.910;8.406;2024-03-02T14:12:29;13.60;99.90
33815;DHT22;20121;51.910;8.406;2024-03-02T14:14:55;13.70;99.90
33815;DHT22;20121;51.910;8.406;2024-03-02T14:17:26;14.00;99.90
33815;DHT22;20121;51.910;8.406;2024-03-02T14:19:52;13.60;99.90
33815;DHT22;20121;51.910;8.406;2024-03-02T14:22:19;13.20;99.90
33815;DHT22;20121;51.910;8.406;2024-03-02T14:24:45;13.60;99.90
33815;DHT22;20121;51.910;8.406;2024-03-02T14:27:11;13.50;99.90
33815;DHT22;20121;51.910;8.406;2024-03-02T14:29:38;13.60;99.90
33815;DHT22;20121;51.910;8.406;2024-03-02T14:32:05;13.60;99.90
33815;DHT22;20121;51.910;8.406;2024-03-02T14:34:31;13.50;99.90
33815;DHT22;20121;51.910;8.406;2024-03-02T14:36:57;13.50;99.90
33815;DHT22;20121;51.910;8.406;2024-03-02T14:39:22;13.60;99.90
